sensor_id;sensor_type;location;lat;lon;timestamp;P1;durP1;ratioP1;P2;durP2;ratioP2
71360;SDS011;59166;48.908;1.870;2022-11-20T00:04:48;12.13;;;4.37;;
71360;SDS011;59166;48.908;1.870;2022-11-20T00:09:50;11.30;;;4.00;;
71360;SDS011;59166;48.908;1.870;2022-11-20T00:14:51;11.40;;;3.93;;
71360;SDS011;59166;48.908;1.870;2022-11-20T00:19:52;10.07;;;3.63;;
71360;SDS011;59166;48.908;1.870;2022-11-20T00:24:54;11.80;;;4.00;;
71360;SDS011;59166;48.908;1.870;2022-11-20T00:29:55;10.02;;;3.75;;
71360;SDS011;59166;48.908;1.870;2022-11-20T00:34:56;14.57;;;3.72;;
71360;SDS011;59166;48.908;1.870;2022-11-20T00:39:58;11.10;;;3.90;;
71360;SDS011;59166;48.908;1.870;2022-11-20T00:44:59;12.40;;;3.63;;
71360;SDS011;59166;48.908;1.870;2022-11-20T00:50:00;15.98;;;4.20;;
71360;SDS011;59166;48.908;1.870;2022-11-20T00:55:03;11.53;;;4.00;;
71360;SDS011;59166;48.908;1.870;2022-11-20T01:00:05;10.57;;;3.67;;
71360;SDS011;59166;48.908;1.870;2022-11-20T01:05:07;10.02;;;3.65;;
71360;SDS011;59166;48.908;1.870;2022-11-20T01:10:09;10.13;;;3.35;;
71360;SDS011;59166;48.908;1.870;2022-11-20T01:15:10;10.20;;;3.43;;
71360;SDS011;59166;48.908;1.870;2022-11-20T01:20:11;13.27;;;3.88;;
71360;SDS011;59166;48.908;1.870;2022-11-20T01:25:14;9.00;;;3.42;;
71360;SDS011;59166;48.908;1.870;2022-11-20T01:30:15;10.13;;;3.37;;
71360;SDS011;59166;48.908;1.870;2022-11-20T01:35:16;10.38;;;3.30;;
71360;SDS011;59166;48.908;1.870;2022-11-20T01:40:19;11.82;;;3.40;;
71360;SDS011;59166;48.908;1.870;2022-11-20T01:50:57;10.27;;;3.10;;
71360;SDS011;59166;48.908;1.870;2022-11-20T01:56:00;9.02;;;3.15;;
71360;SDS011;59166;48.908;1.870;2022-11-20T02:01:05;9.10;;;2.97;;
71360;SDS011;59166;48.908;1.870;2022-11-20T02:06:08;10.33;;;3.30;;
71360;SDS011;59166;48.908;1.870;2022-11-20T02:11:15;10.43;;;3.58;;
71360;SDS011;59166;48.908;1.870;2022-11-20T02:16:17;12.75;;;3.20;;
71360;SDS011;59166;48.908;1.870;2022-11-20T02:21:24;10.83;;;3.40;;
71360;SDS011;59166;48.908;1.870;2022-11-20T02:27:06;10.20;;;3.00;;
71360;SDS011;59166;48.908;1.870;2022-11-20T02:32:17;9.45;;;2.97;;
71360;SDS011;59166;48.908;1.870;2022-11-20T02:37:19;9.43;;;3.13;;
71360;SDS011;59166;48.908;1.870;2022-11-20T02:42:22;8.05;;;2.80;;
71360;SDS011;59166;48.908;1.870;2022-11-20T02:47:23;8.43;;;2.95;;
71360;SDS011;59166;48.908;1.870;2022-11-20T02:52:24;8.93;;;2.80;;
71360;SDS011;59166;48.908;1.870;2022-11-20T02:57:27;9.15;;;2.60;;
71360;SDS011;59166;48.908;1.870;2022-11-20T03:02:29;8.70;;;2.63;;
71360;SDS011;59166;48.908;1.870;2022-11-20T03:07:31;9.47;;;2.60;;
71360;SDS011;59166;48.908;1.870;2022-11-20T03:12:33;10.63;;;2.60;;
71360;SDS011;59166;48.908;1.870;2022-11-20T03:17:34;9.93;;;2.50;;
71360;SDS011;59166;48.908;1.870;2022-11-20T03:22:35;9.60;;;2.60;;
71360;SDS011;59166;48.908;1.870;2022-11-20T03:27:38;8.37;;;3.00;;
71360;SDS011;59166;48.908;1.870;2022-11-20T03:32:39;9.07;;;2.70;;
71360;SDS011;59166;48.908;1.870;2022-11-20T03:37:40;12.23;;;3.05;;
71360;SDS011;59166;48.908;1.870;2022-11-20T03:42:43;8.77;;;2.80;;
71360;SDS011;59166;48.908;1.870;2022-11-20T03:47:44;9.10;;;2.92;;
71360;SDS011;59166;48.908;1.870;2022-11-20T03:52:45;7.45;;;2.65;;
71360;SDS011;59166;48.908;1.870;2022-11-20T03:57:47;9.40;;;2.67;;
71360;SDS011;59166;48.908;1.870;2022-11-20T04:02:50;10.02;;;2.88;;
71360;SDS011;59166;48.908;1.870;2022-11-20T04:07:51;10.27;;;2.72;;
71360;SDS011;59166;48.908;1.870;2022-11-20T04:12:53;10.93;;;2.80;;
71360;SDS011;59166;48.908;1.870;2022-11-20T04:17:54;8.77;;;3.00;;
71360;SDS011;59166;48.908;1.870;2022-11-20T04:22:55;9.48;;;2.97;;
71360;SDS011;59166;48.908;1.870;2022-11-20T04:27:58;8.87;;;2.93;;
71360;SDS011;59166;48.908;1.870;2022-11-20T04:32:58;8.95;;;3.10;;
71360;SDS011;59166;48.908;1.870;2022-11-20T04:37:59;9.97;;;3.13;;
71360;SDS011;59166;48.908;1.870;2022-11-20T04:43:02;9.57;;;2.72;;
71360;SDS011;59166;48.908;1.870;2022-11-20T04:48:03;7.97;;;2.60;;
71360;SDS011;59166;48.908;1.870;2022-11-20T04:53:09;10.50;;;3.20;;
71360;SDS011;59166;48.908;1.870;2022-11-20T04:58:11;10.13;;;3.10;;
71360;SDS011;59166;48.908;1.870;2022-11-20T05:03:12;9.10;;;2.67;;
71360;SDS011;59166;48.908;1.870;2022-11-20T05:08:13;7.50;;;2.63;;
71360;SDS011;59166;48.908;1.870;2022-11-20T05:13:16;7.90;;;2.70;;
71360;SDS011;59166;48.908;1.870;2022-11-20T05:18:17;8.45;;;2.58;;
71360;SDS011;59166;48.908;1.870;2022-11-20T05:23:18;9.83;;;2.60;;
71360;SDS011;59166;48.908;1.870;2022-11-20T05:28:21;10.13;;;3.03;;
71360;SDS011;59166;48.908;1.870;2022-11-20T05:33:22;11.18;;;2.80;;
71360;SDS011;59166;48.908;1.870;2022-11-20T05:38:23;8.40;;;2.60;;
71360;SDS011;59166;48.908;1.870;2022-11-20T05:43:25;8.40;;;2.60;;
71360;SDS011;59166;48.908;1.870;2022-11-20T05:48:26;8.85;;;2.70;;
71360;SDS011;59166;48.908;1.870;2022-11-20T05:53:27;8.67;;;2.57;;
71360;SDS011;59166;48.908;1.870;2022-11-20T05:58:30;12.30;;;2.90;;
71360;SDS011;59166;48.908;1.870;2022-11-20T06:03:31;9.57;;;2.80;;
71360;SDS011;59166;48.908;1.870;2022-11-20T06:08:32;7.30;;;2.33;;
71360;SDS011;59166;48.908;1.870;2022-11-20T06:13:35;12.13;;;2.80;;
71360;SDS011;59166;48.908;1.870;2022-11-20T06:18:37;9.48;;;2.55;;
71360;SDS011;59166;48.908;1.870;2022-11-20T06:23:38;7.57;;;2.60;;
71360;SDS011;59166;48.908;1.870;2022-11-20T06:28:41;8.25;;;2.63;;
71360;SDS011;59166;48.908;1.870;2022-11-20T06:33:42;8.48;;;2.85;;
71360;SDS011;59166;48.908;1.870;2022-11-20T06:38:44;10.70;;;2.73;;
71360;SDS011;59166;48.908;1.870;2022-11-20T06:43:46;8.57;;;2.73;;
71360;SDS011;59166;48.908;1.870;2022-11-20T06:48:47;8.75;;;2.50;;
71360;SDS011;59166;48.908;1.870;2022-11-20T06:53:49;8.25;;;2.53;;
71360;SDS011;59166;48.908;1.870;2022-11-20T06:58:51;10.40;;;2.90;;
71360;SDS011;59166;48.908;1.870;2022-11-20T07:03:52;8.52;;;2.55;;
71360;SDS011;59166;48.908;1.870;2022-11-20T07:08:53;8.80;;;2.73;;
71360;SDS011;59166;48.908;1.870;2022-11-20T07:13:56;9.25;;;2.80;;
71360;SDS011;59166;48.908;1.870;2022-11-20T07:18:57;9.35;;;2.70;;
71360;SDS011;59166;48.908;1.870;2022-11-20T07:23:58;7.83;;;2.27;;
71360;SDS011;59166;48.908;1.870;2022-11-20T07:29:00;8.13;;;2.70;;
71360;SDS011;59166;48.908;1.870;2022-11-20T07:34:02;9.45;;;2.60;;
71360;SDS011;59166;48.908;1.870;2022-11-20T07:39:03;8.03;;;2.47;;
71360;SDS011;59166;48.908;1.870;2022-11-20T07:44:05;8.27;;;2.40;;
71360;SDS011;59166;48.908;1.870;2022-11-20T07:49:06;8.25;;;2.40;;
71360;SDS011;59166;48.908;1.870;2022-11-20T07:54:08;8.10;;;2.27;;
71360;SDS011;59166;48.908;1.870;2022-11-20T07:59:13;8.00;;;2.63;;
71360;SDS011;59166;48.908;1.870;2022-11-20T08:09:40;7.97;;;2.50;;
71360;SDS011;59166;48.908;1.870;2022-11-20T08:14:45;11.50;;;3.13;;
71360;SDS011;59166;48.908;1.870;2022-11-20T08:19:47;9.85;;;2.33;;
71360;SDS011;59166;48.908;1.870;2022-11-20T08:24:47;8.93;;;2.65;;
71360;SDS011;59166;48.908;1.870;2022-11-20T08:29:51;9.70;;;2.50;;
71360;SDS011;59166;48.908;1.870;2022-11-20T08:34:53;6.97;;;2.42;;
71360;SDS011;59166;48.908;1.870;2022-11-20T08:39:54;7.73;;;2.77;;
71360;SDS011;59166;48.908;1.870;2022-11-20T08:44:57;11.38;;;2.50;;
71360;SDS011;59166;48.908;1.870;2022-11-20T08:49:58;9.57;;;2.65;;
71360;SDS011;59166;48.908;1.870;2022-11-20T08:54:59;7.93;;;2.90;;
71360;SDS011;59166;48.908;1.870;2022-11-20T09:00:01;16.42;;;7.03;;
71360;SDS011;59166;48.908;1.870;2022-11-20T09:05:04;14.13;;;4.60;;
71360;SDS011;59166;48.908;1.870;2022-11-20T09:10:06;12.03;;;4.10;;
71360;SDS011;59166;48.908;1.870;2022-11-20T09:15:09;11.93;;;4.05;;
71360;SDS011;59166;48.908;1.870;2022-11-20T09:20:10;11.57;;;4.10;;
71360;SDS011;59166;48.908;1.870;2022-11-20T09:25:11;10.27;;;4.00;;
71360;SDS011;59166;48.908;1.870;2022-11-20T09:30:14;12.80;;;3.58;;
71360;SDS011;59166;48.908;1.870;2022-11-20T09:35:15;12.05;;;3.67;;
71360;SDS011;59166;48.908;1.870;2022-11-20T09:40:18;8.43;;;3.23;;
71360;SDS011;59166;48.908;1.870;2022-11-20T09:45:28;12.70;;;4.15;;
71360;SDS011;59166;48.908;1.870;2022-11-20T09:50:38;12.55;;;3.97;;
71360;SDS011;59166;48.908;1.870;2022-11-20T09:55:45;11.23;;;4.20;;
71360;SDS011;59166;48.908;1.870;2022-11-20T10:00:48;11.18;;;3.92;;
71360;SDS011;59166;48.908;1.870;2022-11-20T10:05:50;10.40;;;3.85;;
71360;SDS011;59166;48.908;1.870;2022-11-20T10:10:56;11.57;;;4.57;;
71360;SDS011;59166;48.908;1.870;2022-11-20T10:16:11;10.40;;;3.80;;
71360;SDS011;59166;48.908;1.870;2022-11-20T10:21:26;10.90;;;3.30;;
71360;SDS011;59166;48.908;1.870;2022-11-20T10:26:37;8.43;;;2.95;;
71360;SDS011;59166;48.908;1.870;2022-11-20T10:31:45;9.73;;;3.17;;
71360;SDS011;59166;48.908;1.870;2022-11-20T10:36:50;7.80;;;2.63;;
71360;SDS011;59166;48.908;1.870;2022-11-20T10:42:14;9.68;;;3.10;;
71360;SDS011;59166;48.908;1.870;2022-11-20T10:47:21;8.93;;;2.90;;
71360;SDS011;59166;48.908;1.870;2022-11-20T10:52:24;8.02;;;2.55;;
71360;SDS011;59166;48.908;1.870;2022-11-20T10:57:38;5.15;;;1.70;;
71360;SDS011;59166;48.908;1.870;2022-11-20T11:02:53;7.37;;;2.33;;
71360;SDS011;59166;48.908;1.870;2022-11-20T11:07:55;8.30;;;2.60;;
71360;SDS011;59166;48.908;1.870;2022-11-20T11:12:57;8.15;;;2.70;;
71360;SDS011;59166;48.908;1.870;2022-11-20T11:17:59;4.10;;;1.50;;
71360;SDS011;59166;48.908;1.870;2022-11-20T11:23:00;8.07;;;2.90;;
71360;SDS011;59166;48.908;1.870;2022-11-20T11:28:02;7.93;;;2.80;;
71360;SDS011;59166;48.908;1.870;2022-11-20T11:33:25;5.37;;;1.83;;
71360;SDS011;59166;48.908;1.870;2022-11-20T11:38:29;7.03;;;2.40;;
71360;SDS011;59166;48.908;1.870;2022-11-20T11:43:34;16.85;;;5.43;;
71360;SDS011;59166;48.908;1.870;2022-11-20T11:48:38;9.47;;;3.93;;
71360;SDS011;59166;48.908;1.870;2022-11-20T11:53:40;7.67;;;2.50;;
71360;SDS011;59166;48.908;1.870;2022-11-20T11:58:43;8.73;;;3.53;;
71360;SDS011;59166;48.908;1.870;2022-11-20T12:03:50;7.43;;;2.70;;
71360;SDS011;59166;48.908;1.870;2022-11-20T12:09:01;4.73;;;1.67;;
71360;SDS011;59166;48.908;1.870;2022-11-20T12:14:08;9.05;;;2.83;;
71360;SDS011;59166;48.908;1.870;2022-11-20T12:19:16;9.68;;;3.20;;
71360;SDS011;59166;48.908;1.870;2022-11-20T12:24:23;7.57;;;2.90;;
71360;SDS011;59166;48.908;1.870;2022-11-20T12:29:38;9.27;;;3.22;;
71360;SDS011;59166;48.908;1.870;2022-11-20T12:34:53;8.18;;;2.95;;
71360;SDS011;59166;48.908;1.870;2022-11-20T12:40:28;5.97;;;1.97;;
71360;SDS011;59166;48.908;1.870;2022-11-20T12:45:43;7.70;;;2.33;;
71360;SDS011;59166;48.908;1.870;2022-11-20T12:51:02;8.80;;;2.78;;
71360;SDS011;59166;48.908;1.870;2022-11-20T12:56:35;10.20;;;4.20;;
71360;SDS011;59166;48.908;1.870;2022-11-20T13:01:44;8.30;;;2.47;;
71360;SDS011;59166;48.908;1.870;2022-11-20T13:07:16;9.52;;;3.10;;
71360;SDS011;59166;48.908;1.870;2022-11-20T13:12:19;8.20;;;2.90;;
71360;SDS011;59166;48.908;1.870;2022-11-20T13:17:28;8.17;;;3.00;;
71360;SDS011;59166;48.908;1.870;2022-11-20T13:22:44;9.52;;;2.65;;
71360;SDS011;59166;48.908;1.870;2022-11-20T13:27:46;10.07;;;2.90;;
71360;SDS011;59166;48.908;1.870;2022-11-20T13:32:49;10.03;;;2.10;;
71360;SDS011;59166;48.908;1.870;2022-11-20T13:38:00;6.97;;;2.00;;
71360;SDS011;59166;48.908;1.870;2022-11-20T13:43:15;8.77;;;2.45;;
71360;SDS011;59166;48.908;1.870;2022-11-20T13:48:22;10.02;;;2.00;;
71360;SDS011;59166;48.908;1.870;2022-11-20T13:53:35;10.13;;;2.50;;
71360;SDS011;59166;48.908;1.870;2022-11-20T13:58:50;14.10;;;3.10;;
71360;SDS011;59166;48.908;1.870;2022-11-20T14:03:59;11.68;;;2.58;;
71360;SDS011;59166;48.908;1.870;2022-11-20T14:09:02;11.80;;;2.30;;
71360;SDS011;59166;48.908;1.870;2022-11-20T14:14:04;9.80;;;2.17;;
71360;SDS011;59166;48.908;1.870;2022-11-20T14:19:26;11.43;;;2.08;;
71360;SDS011;59166;48.908;1.870;2022-11-20T14:24:31;9.97;;;2.27;;
71360;SDS011;59166;48.908;1.870;2022-11-20T14:29:34;14.87;;;2.80;;
71360;SDS011;59166;48.908;1.870;2022-11-20T14:34:37;10.00;;;2.38;;
71360;SDS011;59166;48.908;1.870;2022-11-20T14:39:46;10.90;;;2.20;;
71360;SDS011;59166;48.908;1.870;2022-11-20T14:44:49;11.20;;;2.50;;
71360;SDS011;59166;48.908;1.870;2022-11-20T14:49:51;9.90;;;1.90;;
71360;SDS011;59166;48.908;1.870;2022-11-20T14:54:55;10.88;;;2.80;;
71360;SDS011;59166;48.908;1.870;2022-11-20T15:00:04;10.83;;;2.97;;
71360;SDS011;59166;48.908;1.870;2022-11-20T15:05:07;12.48;;;2.72;;
71360;SDS011;59166;48.908;1.870;2022-11-20T15:10:10;10.48;;;2.25;;
71360;SDS011;59166;48.908;1.870;2022-11-20T15:15:14;7.43;;;1.67;;
71360;SDS011;59166;48.908;1.870;2022-11-20T15:20:20;8.40;;;1.90;;
71360;SDS011;59166;48.908;1.870;2022-11-20T15:25:27;9.57;;;2.75;;
71360;SDS011;59166;48.908;1.870;2022-11-20T15:30:28;9.77;;;2.50;;
71360;SDS011;59166;48.908;1.870;2022-11-20T15:35:29;15.73;;;4.73;;
71360;SDS011;59166;48.908;1.870;2022-11-20T15:40:32;11.75;;;3.38;;
71360;SDS011;59166;48.908;1.870;2022-11-20T15:45:37;9.87;;;3.20;;
71360;SDS011;59166;48.908;1.870;2022-11-20T15:50:42;8.02;;;2.38;;
71360;SDS011;59166;48.908;1.870;2022-11-20T15:55:51;9.52;;;1.90;;
71360;SDS011;59166;48.908;1.870;2022-11-20T16:00:52;8.70;;;1.90;;
71360;SDS011;59166;48.908;1.870;2022-11-20T16:05:53;11.03;;;2.10;;
71360;SDS011;59166;48.908;1.870;2022-11-20T16:10:55;7.88;;;2.08;;
71360;SDS011;59166;48.908;1.870;2022-11-20T16:15:57;10.70;;;1.87;;
71360;SDS011;59166;48.908;1.870;2022-11-20T16:20:59;11.00;;;2.30;;
71360;SDS011;59166;48.908;1.870;2022-11-20T16:26:01;10.05;;;2.60;;
71360;SDS011;59166;48.908;1.870;2022-11-20T16:31:10;10.13;;;2.27;;
71360;SDS011;59166;48.908;1.870;2022-11-20T16:36:12;12.90;;;2.60;;
71360;SDS011;59166;48.908;1.870;2022-11-20T16:41:16;10.73;;;2.60;;
71360;SDS011;59166;48.908;1.870;2022-11-20T16:46:17;14.27;;;3.00;;
71360;SDS011;59166;48.908;1.870;2022-11-20T16:51:19;10.73;;;2.20;;
71360;SDS011;59166;48.908;1.870;2022-11-20T16:56:22;11.85;;;2.40;;
71360;SDS011;59166;48.908;1.870;2022-11-20T17:01:25;12.07;;;2.80;;
71360;SDS011;59166;48.908;1.870;2022-11-20T17:06:27;11.43;;;2.40;;
71360;SDS011;59166;48.908;1.870;2022-11-20T17:11:31;13.65;;;2.70;;
71360;SDS011;59166;48.908;1.870;2022-11-20T17:16:32;10.40;;;2.40;;
71360;SDS011;59166;48.908;1.870;2022-11-20T17:21:34;11.10;;;2.87;;
71360;SDS011;59166;48.908;1.870;2022-11-20T17:26:37;14.50;;;2.63;;
71360;SDS011;59166;48.908;1.870;2022-11-20T17:31:40;15.25;;;3.20;;
71360;SDS011;59166;48.908;1.870;2022-11-20T17:36:42;11.93;;;2.73;;
71360;SDS011;59166;48.908;1.870;2022-11-20T17:41:45;13.37;;;3.23;;
71360;SDS011;59166;48.908;1.870;2022-11-20T17:46:45;9.48;;;2.83;;
71360;SDS011;59166;48.908;1.870;2022-11-20T17:51:46;14.70;;;2.97;;
71360;SDS011;59166;48.908;1.870;2022-11-20T17:56:49;14.20;;;2.90;;
71360;SDS011;59166;48.908;1.870;2022-11-20T18:01:49;8.32;;;2.00;;
71360;SDS011;59166;48.908;1.870;2022-11-20T18:06:50;13.60;;;3.57;;
71360;SDS011;59166;48.908;1.870;2022-11-20T18:11:53;14.00;;;3.10;;
71360;SDS011;59166;48.908;1.870;2022-11-20T18:16:55;15.17;;;3.67;;
71360;SDS011;59166;48.908;1.870;2022-11-20T18:21:58;15.32;;;3.38;;
71360;SDS011;59166;48.908;1.870;2022-11-20T18:27:01;14.07;;;3.17;;
71360;SDS011;59166;48.908;1.870;2022-11-20T18:32:02;10.40;;;2.13;;
71360;SDS011;59166;48.908;1.870;2022-11-20T18:37:03;14.10;;;2.87;;
71360;SDS011;59166;48.908;1.870;2022-11-20T18:42:05;12.23;;;2.90;;
71360;SDS011;59166;48.908;1.870;2022-11-20T18:47:07;13.53;;;2.93;;
71360;SDS011;59166;48.908;1.870;2022-11-20T18:52:10;14.68;;;3.22;;
71360;SDS011;59166;48.908;1.870;2022-11-20T18:57:12;7.07;;;2.10;;
71360;SDS011;59166;48.908;1.870;2022-11-20T19:02:15;8.80;;;2.00;;
71360;SDS011;59166;48.908;1.870;2022-11-20T19:07:17;15.38;;;2.80;;
71360;SDS011;59166;48.908;1.870;2022-11-20T19:12:20;14.55;;;2.95;;
71360;SDS011;59166;48.908;1.870;2022-11-20T19:17:21;12.57;;;2.50;;
71360;SDS011;59166;48.908;1.870;2022-11-20T19:22:22;16.10;;;2.90;;
71360;SDS011;59166;48.908;1.870;2022-11-20T19:27:24;12.00;;;2.07;;
71360;SDS011;59166;48.908;1.870;2022-11-20T19:32:26;15.05;;;2.70;;
71360;SDS011;59166;48.908;1.870;2022-11-20T19:37:27;11.00;;;2.43;;
71360;SDS011;59166;48.908;1.870;2022-11-20T19:42:29;9.63;;;2.47;;
71360;SDS011;59166;48.908;1.870;2022-11-20T19:47:30;13.10;;;3.00;;
71360;SDS011;59166;48.908;1.870;2022-11-20T19:52:32;11.23;;;2.00;;
71360;SDS011;59166;48.908;1.870;2022-11-20T19:57:38;11.32;;;2.13;;
71360;SDS011;59166;48.908;1.870;2022-11-20T20:02:39;12.70;;;2.40;;
71360;SDS011;59166;48.908;1.870;2022-11-20T20:07:40;9.93;;;2.10;;
71360;SDS011;59166;48.908;1.870;2022-11-20T20:12:46;10.68;;;1.98;;
71360;SDS011;59166;48.908;1.870;2022-11-20T20:17:53;8.95;;;1.77;;
71360;SDS011;59166;48.908;1.870;2022-11-20T20:22:55;10.57;;;1.97;;
71360;SDS011;59166;48.908;1.870;2022-11-20T20:27:58;12.65;;;2.35;;
71360;SDS011;59166;48.908;1.870;2022-11-20T20:33:03;14.67;;;2.47;;
71360;SDS011;59166;48.908;1.870;2022-11-20T20:38:24;13.50;;;2.20;;
71360;SDS011;59166;48.908;1.870;2022-11-20T20:43:32;15.15;;;2.30;;
71360;SDS011;59166;48.908;1.870;2022-11-20T20:48:35;11.82;;;2.50;;
71360;SDS011;59166;48.908;1.870;2022-11-20T20:53:36;8.83;;;2.40;;
71360;SDS011;59166;48.908;1.870;2022-11-20T20:58:39;14.10;;;2.70;;
71360;SDS011;59166;48.908;1.870;2022-11-20T21:03:40;13.57;;;2.50;;
71360;SDS011;59166;48.908;1.870;2022-11-20T21:08:41;11.73;;;2.65;;
71360;SDS011;59166;48.908;1.870;2022-11-20T21:13:44;11.95;;;2.40;;
71360;SDS011;59166;48.908;1.870;2022-11-20T21:18:46;11.93;;;1.83;;
71360;SDS011;59166;48.908;1.870;2022-11-20T21:23:47;8.97;;;1.93;;
71360;SDS011;59166;48.908;1.870;2022-11-20T21:28:49;11.48;;;2.40;;
71360;SDS011;59166;48.908;1.870;2022-11-20T21:33:50;15.43;;;2.87;;
71360;SDS011;59166;48.908;1.870;2022-11-20T21:38:52;14.85;;;3.08;;
71360;SDS011;59166;48.908;1.870;2022-11-20T21:43:56;15.90;;;3.72;;
71360;SDS011;59166;48.908;1.870;2022-11-20T21:48:58;12.10;;;3.00;;
71360;SDS011;59166;48.908;1.870;2022-11-20T21:53:58;14.13;;;3.38;;
71360;SDS011;59166;48.908;1.870;2022-11-20T21:59:01;19.10;;;3.67;;
71360;SDS011;59166;48.908;1.870;2022-11-20T22:04:02;13.38;;;3.05;;
71360;SDS011;59166;48.908;1.870;2022-11-20T22:09:02;12.77;;;2.77;;
71360;SDS011;59166;48.908;1.870;2022-11-20T22:14:05;12.68;;;2.63;;
71360;SDS011;59166;48.908;1.870;2022-11-20T22:19:06;16.30;;;2.17;;
71360;SDS011;59166;48.908;1.870;2022-11-20T22:24:07;11.83;;;2.10;;
71360;SDS011;59166;48.908;1.870;2022-11-20T22:29:13;13.13;;;2.80;;
71360;SDS011;59166;48.908;1.870;2022-11-20T22:34:14;10.70;;;2.00;;
71360;SDS011;59166;48.908;1.870;2022-11-20T22:39:15;12.85;;;2.45;;
71360;SDS011;59166;48.908;1.870;2022-11-20T22:44:18;14.73;;;2.20;;
71360;SDS011;59166;48.908;1.870;2022-11-20T22:49:18;11.03;;;2.13;;
71360;SDS011;59166;48.908;1.870;2022-11-20T22:54:19;14.57;;;2.35;;
71360;SDS011;59166;48.908;1.870;2022-11-20T22:59:22;10.97;;;2.57;;
71360;SDS011;59166;48.908;1.870;2022-11-20T23:04:23;16.33;;;2.35;;
71360;SDS011;59166;48.908;1.870;2022-11-20T23:09:24;10.52;;;1.80;;
71360;SDS011;59166;48.908;1.870;2022-11-20T23:14:26;12.40;;;2.27;;
71360;SDS011;59166;48.908;1.870;2022-11-20T23:19:27;14.70;;;2.38;;
71360;SDS011;59166;48.908;1.870;2022-11-20T23:24:27;13.90;;;2.27;;
71360;SDS011;59166;48.908;1.870;2022-11-20T23:29:30;13.77;;;2.20;;
71360;SDS011;59166;48.908;1.870;2022-11-20T23:34:31;14.00;;;2.60;;
71360;SDS011;59166;48.908;1.870;2022-11-20T23:39:31;13.13;;;2.37;;
71360;SDS011;59166;48.908;1.870;2022-11-20T23:44:34;15.03;;;2.20;;
71360;SDS011;59166;48.908;1.870;2022-11-20T23:49:34;14.80;;;2.37;;
71360;SDS011;59166;48.908;1.870;2022-11-20T23:54:35;14.48;;;2.67;;
71360;SDS011;59166;48.908;1.870;2022-11-20T23:59:38;15.10;;;2.50;;
